sensor_id;sensor_type;location;lat;lon;timestamp;P1;durP1;ratioP1;P2;durP2;ratioP2
15996;SDS011;8103;51.340;12.326;2023-03-12T00:00:03;6.82;;;3.30;;
15996;SDS011;8103;51.340;12.326;2023-03-12T00:02:34;4.97;;;3.03;;
15996;SDS011;8103;51.340;12.326;2023-03-12T00:05:01;9.13;;;4.10;;
15996;SDS011;8103;51.340;12.326;2023-03-12T00:07:28;6.90;;;3.25;;
15996;SDS011;8103;51.340;12.326;2023-03-12T00:09:56;6.97;;;3.03;;
15996;SDS011;8103;51.340;12.326;2023-03-12T00:12:23;4.97;;;3.10;;
15996;SDS011;8103;51.340;12.326;2023-03-12T00:14:50;7.57;;;5.07;;
15996;SDS011;8103;51.340;12.326;2023-03-12T00:17:17;8.13;;;3.97;;
15996;SDS011;8103;51.340;12.326;2023-03-12T00:19:44;5.07;;;3.67;;
15996;SDS011;8103;51.340;12.326;2023-03-12T00:22:11;6.43;;;2.80;;
15996;SDS011;8103;51.340;12.326;2023-03-12T00:24:41;8.47;;;3.30;;
15996;SDS011;8103;51.340;12.326;2023-03-12T00:27:08;4.53;;;3.47;;
15996;SDS011;8103;51.340;12.326;2023-03-12T00:29:35;9.60;;;5.10;;
15996;SDS011;8103;51.340;12.326;2023-03-12T00:32:02;5.07;;;2.87;;
15996;SDS011;8103;51.340;12.326;2023-03-12T00:34:29;4.53;;;3.50;;
15996;SDS011;8103;51.340;12.326;2023-03-12T00:36:56;11.70;;;3.47;;
15996;SDS011;8103;51.340;12.326;2023-03-12T00:39:23;4.73;;;2.80;;
15996;SDS011;8103;51.340;12.326;2023-03-12T00:41:50;4.37;;;2.57;;
15996;SDS011;8103;51.340;12.326;2023-03-12T00:44:17;4.80;;;2.77;;
15996;SDS011;8103;51.340;12.326;2023-03-12T00:46:44;5.83;;;3.30;;
15996;SDS011;8103;51.340;12.326;2023-03-12T00:49:11;6.83;;;2.63;;
15996;SDS011;8103;51.340;12.326;2023-03-12T00:51:38;7.07;;;3.00;;
15996;SDS011;8103;51.340;12.326;2023-03-12T00:54:05;4.18;;;3.20;;
15996;SDS011;8103;51.340;12.326;2023-03-12T00:56:31;8.70;;;3.40;;
15996;SDS011;8103;51.340;12.326;2023-03-12T00:58:58;6.03;;;3.22;;
15996;SDS011;8103;51.340;12.326;2023-03-12T01:01:25;6.07;;;3.38;;
15996;SDS011;8103;51.340;12.326;2023-03-12T01:03:53;6.37;;;3.67;;
15996;SDS011;8103;51.340;12.326;2023-03-12T01:06:20;6.53;;;3.83;;
15996;SDS011;8103;51.340;12.326;2023-03-12T01:08:47;5.20;;;3.40;;
15996;SDS011;8103;51.340;12.326;2023-03-12T01:11:15;12.07;;;6.88;;
15996;SDS011;8103;51.340;12.326;2023-03-12T01:13:45;9.87;;;5.17;;
15996;SDS011;8103;51.340;12.326;2023-03-12T01:16:13;12.13;;;4.07;;
15996;SDS011;8103;51.340;12.326;2023-03-12T01:18:40;7.90;;;3.77;;
15996;SDS011;8103;51.340;12.326;2023-03-12T01:21:07;6.57;;;3.37;;
15996;SDS011;8103;51.340;12.326;2023-03-12T01:23:34;7.87;;;3.90;;
15996;SDS011;8103;51.340;12.326;2023-03-12T01:26:02;7.77;;;4.33;;
15996;SDS011;8103;51.340;12.326;2023-03-12T01:28:29;8.70;;;3.37;;
15996;SDS011;8103;51.340;12.326;2023-03-12T01:30:56;7.17;;;3.70;;
15996;SDS011;8103;51.340;12.326;2023-03-12T01:33:23;6.43;;;3.53;;
15996;SDS011;8103;51.340;12.326;2023-03-12T01:35:49;9.23;;;4.03;;
15996;SDS011;8103;51.340;12.326;2023-03-12T01:38:16;9.43;;;3.10;;
15996;SDS011;8103;51.340;12.326;2023-03-12T01:40:44;7.13;;;3.83;;
15996;SDS011;8103;51.340;12.326;2023-03-12T01:43:30;8.77;;;3.77;;
15996;SDS011;8103;51.340;12.326;2023-03-12T01:49:06;6.63;;;3.30;;
15996;SDS011;8103;51.340;12.326;2023-03-12T01:51:46;6.07;;;3.37;;
15996;SDS011;8103;51.340;12.326;2023-03-12T01:54:25;6.20;;;3.47;;
15996;SDS011;8103;51.340;12.326;2023-03-12T01:56:58;6.27;;;3.10;;
15996;SDS011;8103;51.340;12.326;2023-03-12T01:59:30;8.00;;;3.43;;
15996;SDS011;8103;51.340;12.326;2023-03-12T02:02:03;4.07;;;2.60;;
15996;SDS011;8103;51.340;12.326;2023-03-12T02:04:32;5.23;;;2.60;;
15996;SDS011;8103;51.340;12.326;2023-03-12T02:07:02;6.83;;;3.03;;
15996;SDS011;8103;51.340;12.326;2023-03-12T02:09:35;7.53;;;3.13;;
15996;SDS011;8103;51.340;12.326;2023-03-12T02:12:07;5.40;;;2.57;;
15996;SDS011;8103;51.340;12.326;2023-03-12T02:14:35;9.10;;;2.43;;
15996;SDS011;8103;51.340;12.326;2023-03-12T02:17:03;5.68;;;2.90;;
15996;SDS011;8103;51.340;12.326;2023-03-12T02:19:40;7.77;;;2.67;;
15996;SDS011;8103;51.340;12.326;2023-03-12T02:22:36;5.23;;;2.33;;
15996;SDS011;8103;51.340;12.326;2023-03-12T02:25:15;5.27;;;2.70;;
15996;SDS011;8103;51.340;12.326;2023-03-12T02:27:44;4.90;;;2.77;;
15996;SDS011;8103;51.340;12.326;2023-03-12T02:30:11;4.43;;;2.63;;
15996;SDS011;8103;51.340;12.326;2023-03-12T02:32:41;3.77;;;2.27;;
15996;SDS011;8103;51.340;12.326;2023-03-12T02:35:12;4.93;;;2.73;;
15996;SDS011;8103;51.340;12.326;2023-03-12T02:37:46;4.33;;;2.80;;
15996;SDS011;8103;51.340;12.326;2023-03-12T02:40:41;3.83;;;2.20;;
15996;SDS011;8103;51.340;12.326;2023-03-12T02:43:11;5.90;;;2.97;;
15996;SDS011;8103;51.340;12.326;2023-03-12T02:45:48;6.33;;;2.33;;
15996;SDS011;8103;51.340;12.326;2023-03-12T02:48:15;3.73;;;2.50;;
15996;SDS011;8103;51.340;12.326;2023-03-12T02:50:42;4.03;;;2.60;;
15996;SDS011;8103;51.340;12.326;2023-03-12T02:53:09;5.33;;;2.90;;
15996;SDS011;8103;51.340;12.326;2023-03-12T02:55:35;5.47;;;2.93;;
15996;SDS011;8103;51.340;12.326;2023-03-12T02:58:02;5.47;;;2.80;;
15996;SDS011;8103;51.340;12.326;2023-03-12T03:00:29;3.93;;;2.47;;
15996;SDS011;8103;51.340;12.326;2023-03-12T03:02:57;5.83;;;2.53;;
15996;SDS011;8103;51.340;12.326;2023-03-12T03:05:26;4.40;;;2.80;;
15996;SDS011;8103;51.340;12.326;2023-03-12T03:07:53;2.57;;;2.33;;
15996;SDS011;8103;51.340;12.326;2023-03-12T03:10:20;4.80;;;2.73;;
15996;SDS011;8103;51.340;12.326;2023-03-12T03:12:46;2.83;;;2.00;;
15996;SDS011;8103;51.340;12.326;2023-03-12T03:15:13;2.83;;;1.93;;
15996;SDS011;8103;51.340;12.326;2023-03-12T03:17:45;3.33;;;2.30;;
15996;SDS011;8103;51.340;12.326;2023-03-12T03:20:12;4.47;;;2.70;;
15996;SDS011;8103;51.340;12.326;2023-03-12T03:22:39;2.87;;;2.00;;
15996;SDS011;8103;51.340;12.326;2023-03-12T03:25:09;4.30;;;2.00;;
15996;SDS011;8103;51.340;12.326;2023-03-12T03:27:36;3.40;;;1.80;;
15996;SDS011;8103;51.340;12.326;2023-03-12T03:30:03;3.20;;;2.03;;
15996;SDS011;8103;51.340;12.326;2023-03-12T03:32:31;6.90;;;2.60;;
15996;SDS011;8103;51.340;12.326;2023-03-12T03:34:58;2.53;;;1.77;;
15996;SDS011;8103;51.340;12.326;2023-03-12T03:37:25;3.30;;;2.40;;
15996;SDS011;8103;51.340;12.326;2023-03-12T03:39:52;3.57;;;2.10;;
15996;SDS011;8103;51.340;12.326;2023-03-12T03:42:19;5.10;;;1.77;;
15996;SDS011;8103;51.340;12.326;2023-03-12T03:44:46;4.60;;;2.00;;
15996;SDS011;8103;51.340;12.326;2023-03-12T03:47:12;4.83;;;2.63;;
15996;SDS011;8103;51.340;12.326;2023-03-12T03:49:39;5.23;;;2.63;;
15996;SDS011;8103;51.340;12.326;2023-03-12T03:52:06;2.57;;;1.87;;
15996;SDS011;8103;51.340;12.326;2023-03-12T03:54:33;5.93;;;1.93;;
15996;SDS011;8103;51.340;12.326;2023-03-12T03:57:00;3.63;;;1.97;;
15996;SDS011;8103;51.340;12.326;2023-03-12T03:59:27;4.63;;;2.27;;
15996;SDS011;8103;51.340;12.326;2023-03-12T04:01:54;4.87;;;2.40;;
15996;SDS011;8103;51.340;12.326;2023-03-12T04:04:21;6.40;;;2.10;;
15996;SDS011;8103;51.340;12.326;2023-03-12T04:06:48;3.27;;;2.10;;
15996;SDS011;8103;51.340;12.326;2023-03-12T04:13:14;4.30;;;1.83;;
15996;SDS011;8103;51.340;12.326;2023-03-12T04:15:47;2.50;;;2.07;;
15996;SDS011;8103;51.340;12.326;2023-03-12T04:18:23;3.63;;;2.23;;
15996;SDS011;8103;51.340;12.326;2023-03-12T04:20:50;1.73;;;1.60;;
15996;SDS011;8103;51.340;12.326;2023-03-12T04:23:16;4.40;;;2.03;;
15996;SDS011;8103;51.340;12.326;2023-03-12T04:25:43;5.10;;;2.63;;
15996;SDS011;8103;51.340;12.326;2023-03-12T04:28:10;6.03;;;2.27;;
15996;SDS011;8103;51.340;12.326;2023-03-12T04:30:37;4.07;;;1.60;;
15996;SDS011;8103;51.340;12.326;2023-03-12T04:33:04;3.60;;;1.53;;
15996;SDS011;8103;51.340;12.326;2023-03-12T04:35:35;4.60;;;2.33;;
15996;SDS011;8103;51.340;12.326;2023-03-12T04:38:02;3.73;;;2.10;;
15996;SDS011;8103;51.340;12.326;2023-03-12T04:40:29;4.17;;;2.47;;
15996;SDS011;8103;51.340;12.326;2023-03-12T04:42:56;5.50;;;2.37;;
15996;SDS011;8103;51.340;12.326;2023-03-12T04:45:23;4.70;;;1.80;;
15996;SDS011;8103;51.340;12.326;2023-03-12T04:47:52;5.20;;;2.00;;
15996;SDS011;8103;51.340;12.326;2023-03-12T04:50:24;2.37;;;1.90;;
15996;SDS011;8103;51.340;12.326;2023-03-12T04:52:51;3.43;;;1.93;;
15996;SDS011;8103;51.340;12.326;2023-03-12T04:55:18;4.20;;;1.90;;
15996;SDS011;8103;51.340;12.326;2023-03-12T04:57:48;2.87;;;1.40;;
15996;SDS011;8103;51.340;12.326;2023-03-12T05:00:15;5.43;;;2.57;;
15996;SDS011;8103;51.340;12.326;2023-03-12T05:02:43;3.83;;;1.90;;
15996;SDS011;8103;51.340;12.326;2023-03-12T05:05:10;2.13;;;1.93;;
15996;SDS011;8103;51.340;12.326;2023-03-12T05:07:37;3.87;;;2.10;;
15996;SDS011;8103;51.340;12.326;2023-03-12T05:10:04;2.53;;;2.00;;
15996;SDS011;8103;51.340;12.326;2023-03-12T05:12:31;4.17;;;2.33;;
15996;SDS011;8103;51.340;12.326;2023-03-12T05:14:58;3.07;;;1.93;;
15996;SDS011;8103;51.340;12.326;2023-03-12T05:17:25;10.80;;;3.00;;
15996;SDS011;8103;51.340;12.326;2023-03-12T05:19:52;4.43;;;2.87;;
15996;SDS011;8103;51.340;12.326;2023-03-12T05:22:18;4.13;;;2.63;;
15996;SDS011;8103;51.340;12.326;2023-03-12T05:24:45;7.63;;;2.80;;
15996;SDS011;8103;51.340;12.326;2023-03-12T05:31:19;4.33;;;1.57;;
15996;SDS011;8103;51.340;12.326;2023-03-12T05:33:46;2.03;;;1.70;;
15996;SDS011;8103;51.340;12.326;2023-03-12T05:36:14;5.03;;;2.10;;
15996;SDS011;8103;51.340;12.326;2023-03-12T05:38:41;3.17;;;1.90;;
15996;SDS011;8103;51.340;12.326;2023-03-12T05:41:09;2.90;;;2.27;;
15996;SDS011;8103;51.340;12.326;2023-03-12T05:43:47;3.40;;;2.13;;
15996;SDS011;8103;51.340;12.326;2023-03-12T05:46:14;5.50;;;2.20;;
15996;SDS011;8103;51.340;12.326;2023-03-12T05:48:42;13.07;;;3.67;;
15996;SDS011;8103;51.340;12.326;2023-03-12T05:51:09;8.00;;;3.63;;
15996;SDS011;8103;51.340;12.326;2023-03-12T05:53:36;4.77;;;3.10;;
15996;SDS011;8103;51.340;12.326;2023-03-12T05:56:03;8.00;;;2.60;;
15996;SDS011;8103;51.340;12.326;2023-03-12T05:58:34;2.40;;;1.90;;
15996;SDS011;8103;51.340;12.326;2023-03-12T06:01:03;4.43;;;2.50;;
15996;SDS011;8103;51.340;12.326;2023-03-12T06:03:40;4.40;;;2.40;;
15996;SDS011;8103;51.340;12.326;2023-03-12T06:06:08;3.53;;;2.60;;
15996;SDS011;8103;51.340;12.326;2023-03-12T06:08:36;8.67;;;2.97;;
15996;SDS011;8103;51.340;12.326;2023-03-12T06:11:03;2.50;;;1.90;;
15996;SDS011;8103;51.340;12.326;2023-03-12T06:13:30;3.80;;;2.67;;
15996;SDS011;8103;51.340;12.326;2023-03-12T06:16:04;3.87;;;1.57;;
15996;SDS011;8103;51.340;12.326;2023-03-12T06:18:40;3.60;;;2.60;;
15996;SDS011;8103;51.340;12.326;2023-03-12T06:21:17;6.07;;;2.27;;
15996;SDS011;8103;51.340;12.326;2023-03-12T06:23:48;3.30;;;2.30;;
15996;SDS011;8103;51.340;12.326;2023-03-12T06:26:16;3.90;;;2.70;;
15996;SDS011;8103;51.340;12.326;2023-03-12T06:28:45;5.73;;;2.30;;
15996;SDS011;8103;51.340;12.326;2023-03-12T06:31:13;4.57;;;2.07;;
15996;SDS011;8103;51.340;12.326;2023-03-12T06:33:41;5.10;;;2.70;;
15996;SDS011;8103;51.340;12.326;2023-03-12T06:36:08;9.50;;;3.53;;
15996;SDS011;8103;51.340;12.326;2023-03-12T06:38:37;7.87;;;3.37;;
15996;SDS011;8103;51.340;12.326;2023-03-12T06:41:06;7.10;;;3.10;;
15996;SDS011;8103;51.340;12.326;2023-03-12T06:43:42;7.27;;;2.87;;
15996;SDS011;8103;51.340;12.326;2023-03-12T06:46:12;4.60;;;2.17;;
15996;SDS011;8103;51.340;12.326;2023-03-12T06:48:42;6.43;;;2.75;;
15996;SDS011;8103;51.340;12.326;2023-03-12T06:51:11;4.60;;;2.20;;
15996;SDS011;8103;51.340;12.326;2023-03-12T06:53:40;5.75;;;2.65;;
15996;SDS011;8103;51.340;12.326;2023-03-12T06:56:07;7.07;;;2.30;;
15996;SDS011;8103;51.340;12.326;2023-03-12T06:58:35;3.87;;;2.00;;
15996;SDS011;8103;51.340;12.326;2023-03-12T07:01:02;7.68;;;2.53;;
15996;SDS011;8103;51.340;12.326;2023-03-12T07:03:30;3.67;;;2.50;;
15996;SDS011;8103;51.340;12.326;2023-03-12T07:05:57;5.38;;;2.78;;
15996;SDS011;8103;51.340;12.326;2023-03-12T07:08:26;3.92;;;2.72;;
15996;SDS011;8103;51.340;12.326;2023-03-12T07:10:57;2.63;;;2.30;;
15996;SDS011;8103;51.340;12.326;2023-03-12T07:13:27;4.25;;;2.80;;
15996;SDS011;8103;51.340;12.326;2023-03-12T07:15:54;4.55;;;2.95;;
15996;SDS011;8103;51.340;12.326;2023-03-12T07:18:21;4.53;;;2.50;;
15996;SDS011;8103;51.340;12.326;2023-03-12T07:20:48;5.82;;;3.00;;
15996;SDS011;8103;51.340;12.326;2023-03-12T07:23:15;3.22;;;2.40;;
15996;SDS011;8103;51.340;12.326;2023-03-12T07:25:42;6.30;;;3.40;;
15996;SDS011;8103;51.340;12.326;2023-03-12T07:32:15;3.90;;;2.75;;
15996;SDS011;8103;51.340;12.326;2023-03-12T07:34:43;4.70;;;2.88;;
15996;SDS011;8103;51.340;12.326;2023-03-12T07:37:10;4.53;;;2.42;;
15996;SDS011;8103;51.340;12.326;2023-03-12T07:39:39;8.23;;;3.65;;
15996;SDS011;8103;51.340;12.326;2023-03-12T07:42:06;2.78;;;2.30;;
15996;SDS011;8103;51.340;12.326;2023-03-12T07:44:33;5.50;;;2.65;;
15996;SDS011;8103;51.340;12.326;2023-03-12T07:47:01;5.00;;;2.28;;
15996;SDS011;8103;51.340;12.326;2023-03-12T07:49:47;2.75;;;2.00;;
15996;SDS011;8103;51.340;12.326;2023-03-12T07:52:14;4.28;;;2.08;;
15996;SDS011;8103;51.340;12.326;2023-03-12T07:54:43;3.17;;;1.77;;
15996;SDS011;8103;51.340;12.326;2023-03-12T07:57:10;5.43;;;2.55;;
15996;SDS011;8103;51.340;12.326;2023-03-12T07:59:37;6.15;;;2.60;;
15996;SDS011;8103;51.340;12.326;2023-03-12T08:02:04;4.32;;;2.38;;
15996;SDS011;8103;51.340;12.326;2023-03-12T08:04:34;5.88;;;2.92;;
15996;SDS011;8103;51.340;12.326;2023-03-12T08:07:01;4.07;;;1.80;;
15996;SDS011;8103;51.340;12.326;2023-03-12T08:09:28;7.18;;;2.60;;
15996;SDS011;8103;51.340;12.326;2023-03-12T08:11:55;3.20;;;1.65;;
15996;SDS011;8103;51.340;12.326;2023-03-12T08:14:22;4.25;;;2.33;;
15996;SDS011;8103;51.340;12.326;2023-03-12T08:16:48;4.05;;;1.88;;
15996;SDS011;8103;51.340;12.326;2023-03-12T08:19:15;3.70;;;2.17;;
15996;SDS011;8103;51.340;12.326;2023-03-12T08:21:42;5.13;;;2.22;;
15996;SDS011;8103;51.340;12.326;2023-03-12T08:24:09;3.95;;;1.63;;
15996;SDS011;8103;51.340;12.326;2023-03-12T08:30:49;3.78;;;1.65;;
15996;SDS011;8103;51.340;12.326;2023-03-12T08:33:19;2.47;;;1.67;;
15996;SDS011;8103;51.340;12.326;2023-03-12T08:35:47;2.28;;;1.48;;
15996;SDS011;8103;51.340;12.326;2023-03-12T08:38:15;4.30;;;2.25;;
15996;SDS011;8103;51.340;12.326;2023-03-12T08:40:42;2.85;;;1.83;;
15996;SDS011;8103;51.340;12.326;2023-03-12T08:43:09;2.55;;;1.73;;
15996;SDS011;8103;51.340;12.326;2023-03-12T08:45:36;3.92;;;1.88;;
15996;SDS011;8103;51.340;12.326;2023-03-12T08:48:04;2.72;;;1.73;;
15996;SDS011;8103;51.340;12.326;2023-03-12T08:50:32;1.55;;;1.45;;
15996;SDS011;8103;51.340;12.326;2023-03-12T08:53:02;4.22;;;1.90;;
15996;SDS011;8103;51.340;12.326;2023-03-12T08:55:29;6.30;;;1.80;;
15996;SDS011;8103;51.340;12.326;2023-03-12T08:57:56;3.40;;;1.50;;
15996;SDS011;8103;51.340;12.326;2023-03-12T09:00:23;6.00;;;1.90;;
15996;SDS011;8103;51.340;12.326;2023-03-12T09:02:50;2.05;;;1.38;;
15996;SDS011;8103;51.340;12.326;2023-03-12T09:05:18;3.45;;;1.70;;
15996;SDS011;8103;51.340;12.326;2023-03-12T09:11:51;3.00;;;1.63;;
15996;SDS011;8103;51.340;12.326;2023-03-12T09:14:19;4.40;;;2.92;;
15996;SDS011;8103;51.340;12.326;2023-03-12T09:17:06;2.83;;;2.22;;
15996;SDS011;8103;51.340;12.326;2023-03-12T09:19:33;4.25;;;2.20;;
15996;SDS011;8103;51.340;12.326;2023-03-12T09:22:00;5.18;;;2.08;;
15996;SDS011;8103;51.340;12.326;2023-03-12T09:28:25;3.63;;;1.70;;
15996;SDS011;8103;51.340;12.326;2023-03-12T09:30:52;2.55;;;1.55;;
15996;SDS011;8103;51.340;12.326;2023-03-12T09:33:19;5.28;;;1.75;;
15996;SDS011;8103;51.340;12.326;2023-03-12T09:35:54;5.00;;;1.63;;
15996;SDS011;8103;51.340;12.326;2023-03-12T09:38:23;1.63;;;1.52;;
15996;SDS011;8103;51.340;12.326;2023-03-12T09:40:50;3.30;;;1.75;;
15996;SDS011;8103;51.340;12.326;2023-03-12T09:46:03;6.55;;;2.30;;
15996;SDS011;8103;51.340;12.326;2023-03-12T09:48:42;4.15;;;2.03;;
15996;SDS011;8103;51.340;12.326;2023-03-12T09:51:15;2.78;;;1.90;;
15996;SDS011;8103;51.340;12.326;2023-03-12T09:53:53;5.32;;;2.40;;
15996;SDS011;8103;51.340;12.326;2023-03-12T09:56:26;3.17;;;1.58;;
15996;SDS011;8103;51.340;12.326;2023-03-12T09:58:54;5.85;;;2.22;;
15996;SDS011;8103;51.340;12.326;2023-03-12T10:07:27;4.40;;;2.05;;
15996;SDS011;8103;51.340;12.326;2023-03-12T10:17:04;3.72;;;2.58;;
15996;SDS011;8103;51.340;12.326;2023-03-12T10:20:13;5.88;;;2.55;;
15996;SDS011;8103;51.340;12.326;2023-03-12T10:25:47;10.05;;;3.35;;
15996;SDS011;8103;51.340;12.326;2023-03-12T10:29:01;5.40;;;2.42;;
15996;SDS011;8103;51.340;12.326;2023-03-12T10:31:52;4.05;;;2.47;;
15996;SDS011;8103;51.340;12.326;2023-03-12T10:34:31;5.50;;;2.30;;
15996;SDS011;8103;51.340;12.326;2023-03-12T10:37:52;8.55;;;2.92;;
15996;SDS011;8103;51.340;12.326;2023-03-12T10:40:03;4.60;;;3.40;;
15996;SDS011;8103;51.340;12.326;2023-03-12T10:42:31;3.38;;;2.47;;
15996;SDS011;8103;51.340;12.326;2023-03-12T10:54:39;6.05;;;2.60;;
15996;SDS011;8103;51.340;12.326;2023-03-12T10:57:10;5.78;;;3.13;;
15996;SDS011;8103;51.340;12.326;2023-03-12T10:59:44;12.70;;;3.40;;
15996;SDS011;8103;51.340;12.326;2023-03-12T11:04:58;7.03;;;3.67;;
15996;SDS011;8103;51.340;12.326;2023-03-12T11:07:32;4.63;;;3.35;;
15996;SDS011;8103;51.340;12.326;2023-03-12T11:12:35;6.32;;;2.45;;
15996;SDS011;8103;51.340;12.326;2023-03-12T11:20:56;4.50;;;2.50;;
15996;SDS011;8103;51.340;12.326;2023-03-12T11:24:24;4.20;;;2.85;;
15996;SDS011;8103;51.340;12.326;2023-03-12T11:29:42;6.60;;;2.25;;
15996;SDS011;8103;51.340;12.326;2023-03-12T11:32:17;4.65;;;2.22;;
15996;SDS011;8103;51.340;12.326;2023-03-12T11:35:13;4.15;;;3.00;;
15996;SDS011;8103;51.340;12.326;2023-03-12T11:38:16;3.03;;;2.70;;
15996;SDS011;8103;51.340;12.326;2023-03-12T11:41:33;5.45;;;2.90;;
15996;SDS011;8103;51.340;12.326;2023-03-12T11:44:33;5.22;;;3.17;;
15996;SDS011;8103;51.340;12.326;2023-03-12T11:56:33;2.63;;;2.40;;
15996;SDS011;8103;51.340;12.326;2023-03-12T11:59:13;5.05;;;2.70;;
15996;SDS011;8103;51.340;12.326;2023-03-12T12:08:38;2.83;;;2.15;;
15996;SDS011;8103;51.340;12.326;2023-03-12T12:11:37;4.05;;;2.40;;
15996;SDS011;8103;51.340;12.326;2023-03-12T12:17:50;7.18;;;2.40;;
15996;SDS011;8103;51.340;12.326;2023-03-12T12:30:10;6.53;;;2.47;;
15996;SDS011;8103;51.340;12.326;2023-03-12T12:35:58;5.75;;;2.45;;
15996;SDS011;8103;51.340;12.326;2023-03-12T12:38:31;4.10;;;2.42;;
15996;SDS011;8103;51.340;12.326;2023-03-12T12:41:19;4.20;;;2.63;;
15996;SDS011;8103;51.340;12.326;2023-03-12T12:44:13;5.15;;;2.97;;
15996;SDS011;8103;51.340;12.326;2023-03-12T12:46:48;2.75;;;2.00;;
15996;SDS011;8103;51.340;12.326;2023-03-12T12:49:29;4.18;;;2.70;;
15996;SDS011;8103;51.340;12.326;2023-03-12T12:52:18;3.58;;;2.10;;
15996;SDS011;8103;51.340;12.326;2023-03-12T12:54:53;5.65;;;3.00;;
15996;SDS011;8103;51.340;12.326;2023-03-12T13:00:48;4.75;;;3.08;;
15996;SDS011;8103;51.340;12.326;2023-03-12T13:03:26;3.38;;;2.08;;
15996;SDS011;8103;51.340;12.326;2023-03-12T13:09:11;3.67;;;2.38;;
15996;SDS011;8103;51.340;12.326;2023-03-12T13:11:25;3.55;;;2.20;;
15996;SDS011;8103;51.340;12.326;2023-03-12T13:16:34;4.55;;;1.70;;
15996;SDS011;8103;51.340;12.326;2023-03-12T13:27:33;6.25;;;2.22;;
15996;SDS011;8103;51.340;12.326;2023-03-12T13:33:05;3.70;;;1.38;;
15996;SDS011;8103;51.340;12.326;2023-03-12T13:35:46;3.22;;;1.80;;
15996;SDS011;8103;51.340;12.326;2023-03-12T13:38:34;3.22;;;2.08;;
15996;SDS011;8103;51.340;12.326;2023-03-12T13:41:29;7.72;;;2.53;;
15996;SDS011;8103;51.340;12.326;2023-03-12T13:49:47;5.80;;;2.28;;
15996;SDS011;8103;51.340;12.326;2023-03-12T13:52:27;4.07;;;2.13;;
15996;SDS011;8103;51.340;12.326;2023-03-12T13:55:29;5.18;;;1.65;;
15996;SDS011;8103;51.340;12.326;2023-03-12T13:58:09;6.10;;;1.83;;
15996;SDS011;8103;51.340;12.326;2023-03-12T14:00:49;2.35;;;1.70;;
15996;SDS011;8103;51.340;12.326;2023-03-12T14:03:40;6.05;;;2.03;;
15996;SDS011;8103;51.340;12.326;2023-03-12T14:06:18;6.78;;;2.13;;
15996;SDS011;8103;51.340;12.326;2023-03-12T14:11:40;2.60;;;1.98;;
15996;SDS011;8103;51.340;12.326;2023-03-12T14:17:36;8.98;;;2.65;;
15996;SDS011;8103;51.340;12.326;2023-03-12T14:20:15;6.55;;;3.22;;
15996;SDS011;8103;51.340;12.326;2023-03-12T14:22:57;8.02;;;2.63;;
15996;SDS011;8103;51.340;12.326;2023-03-12T14:25:49;3.72;;;2.05;;
15996;SDS011;8103;51.340;12.326;2023-03-12T14:28:29;7.78;;;2.25;;
15996;SDS011;8103;51.340;12.326;2023-03-12T14:31:05;3.88;;;2.00;;
15996;SDS011;8103;51.340;12.326;2023-03-12T14:36:36;4.38;;;2.42;;
15996;SDS011;8103;51.340;12.326;2023-03-12T14:39:22;6.90;;;2.47;;
15996;SDS011;8103;51.340;12.326;2023-03-12T14:42:07;5.97;;;2.72;;
15996;SDS011;8103;51.340;12.326;2023-03-12T14:44:36;5.82;;;2.15;;
15996;SDS011;8103;51.340;12.326;2023-03-12T14:47:05;5.90;;;2.28;;
15996;SDS011;8103;51.340;12.326;2023-03-12T14:49:39;4.82;;;1.98;;
15996;SDS011;8103;51.340;12.326;2023-03-12T14:52:19;4.55;;;2.55;;
15996;SDS011;8103;51.340;12.326;2023-03-12T14:54:57;3.47;;;2.15;;
15996;SDS011;8103;51.340;12.326;2023-03-12T14:57:32;4.43;;;2.70;;
15996;SDS011;8103;51.340;12.326;2023-03-12T14:59:59;4.20;;;2.72;;
15996;SDS011;8103;51.340;12.326;2023-03-12T15:02:27;5.60;;;3.25;;
15996;SDS011;8103;51.340;12.326;2023-03-12T15:04:57;9.38;;;3.40;;
15996;SDS011;8103;51.340;12.326;2023-03-12T15:07:36;4.43;;;2.40;;
15996;SDS011;8103;51.340;12.326;2023-03-12T15:10:05;4.70;;;2.63;;
15996;SDS011;8103;51.340;12.326;2023-03-12T15:12:46;6.68;;;2.72;;
15996;SDS011;8103;51.340;12.326;2023-03-12T15:18:14;4.10;;;2.47;;
15996;SDS011;8103;51.340;12.326;2023-03-12T15:20:46;5.80;;;2.60;;
15996;SDS011;8103;51.340;12.326;2023-03-12T15:23:16;6.40;;;2.85;;
15996;SDS011;8103;51.340;12.326;2023-03-12T15:25:44;7.63;;;2.85;;
15996;SDS011;8103;51.340;12.326;2023-03-12T15:30:43;12.27;;;3.10;;
15996;SDS011;8103;51.340;12.326;2023-03-12T15:33:11;4.70;;;2.70;;
15996;SDS011;8103;51.340;12.326;2023-03-12T15:36:04;6.78;;;3.35;;
15996;SDS011;8103;51.340;12.326;2023-03-12T15:38:43;5.57;;;2.85;;
15996;SDS011;8103;51.340;12.326;2023-03-12T15:41:21;5.22;;;2.78;;
15996;SDS011;8103;51.340;12.326;2023-03-12T15:43:59;8.00;;;4.03;;
15996;SDS011;8103;51.340;12.326;2023-03-12T15:46:27;6.68;;;3.65;;
15996;SDS011;8103;51.340;12.326;2023-03-12T15:48:57;7.43;;;3.53;;
15996;SDS011;8103;51.340;12.326;2023-03-12T15:51:30;8.98;;;4.15;;
15996;SDS011;8103;51.340;12.326;2023-03-12T15:54:05;12.30;;;3.80;;
15996;SDS011;8103;51.340;12.326;2023-03-12T15:56:51;2.78;;;2.42;;
15996;SDS011;8103;51.340;12.326;2023-03-12T15:59:24;6.05;;;2.50;;
15996;SDS011;8103;51.340;12.326;2023-03-12T16:01:54;5.28;;;3.00;;
15996;SDS011;8103;51.340;12.326;2023-03-12T16:04:22;7.60;;;3.08;;
15996;SDS011;8103;51.340;12.326;2023-03-12T16:06:52;4.32;;;3.03;;
15996;SDS011;8103;51.340;12.326;2023-03-12T16:13:26;7.22;;;3.25;;
15996;SDS011;8103;51.340;12.326;2023-03-12T16:15:56;4.35;;;2.67;;
15996;SDS011;8103;51.340;12.326;2023-03-12T16:18:26;4.78;;;3.03;;
15996;SDS011;8103;51.340;12.326;2023-03-12T16:20:52;4.68;;;2.95;;
15996;SDS011;8103;51.340;12.326;2023-03-12T16:23:19;4.75;;;3.15;;
15996;SDS011;8103;51.340;12.326;2023-03-12T16:25:47;5.70;;;2.58;;
15996;SDS011;8103;51.340;12.326;2023-03-12T16:28:18;3.10;;;2.80;;
15996;SDS011;8103;51.340;12.326;2023-03-12T16:30:47;5.88;;;2.60;;
15996;SDS011;8103;51.340;12.326;2023-03-12T16:33:19;4.85;;;2.97;;
15996;SDS011;8103;51.340;12.326;2023-03-12T16:35:49;2.88;;;2.38;;
15996;SDS011;8103;51.340;12.326;2023-03-12T16:38:17;6.28;;;2.58;;
15996;SDS011;8103;51.340;12.326;2023-03-12T16:40:45;5.30;;;2.65;;
15996;SDS011;8103;51.340;12.326;2023-03-12T16:43:18;4.15;;;2.45;;
15996;SDS011;8103;51.340;12.326;2023-03-12T16:45:52;6.75;;;2.80;;
15996;SDS011;8103;51.340;12.326;2023-03-12T16:48:23;9.15;;;4.07;;
15996;SDS011;8103;51.340;12.326;2023-03-12T16:50:51;6.78;;;3.28;;
15996;SDS011;8103;51.340;12.326;2023-03-12T16:53:25;7.50;;;3.50;;
15996;SDS011;8103;51.340;12.326;2023-03-12T16:55:59;5.55;;;3.33;;
15996;SDS011;8103;51.340;12.326;2023-03-12T16:58:27;17.80;;;4.95;;
15996;SDS011;8103;51.340;12.326;2023-03-12T17:00:56;6.30;;;3.47;;
15996;SDS011;8103;51.340;12.326;2023-03-12T17:03:31;12.60;;;5.90;;
15996;SDS011;8103;51.340;12.326;2023-03-12T17:06:04;3.95;;;3.30;;
15996;SDS011;8103;51.340;12.326;2023-03-12T17:08:32;6.22;;;4.55;;
15996;SDS011;8103;51.340;12.326;2023-03-12T17:11:01;5.65;;;4.47;;
15996;SDS011;8103;51.340;12.326;2023-03-12T17:13:34;5.88;;;3.55;;
15996;SDS011;8103;51.340;12.326;2023-03-12T17:16:02;8.05;;;4.72;;
15996;SDS011;8103;51.340;12.326;2023-03-12T17:18:29;6.45;;;5.03;;
15996;SDS011;8103;51.340;12.326;2023-03-12T17:20:57;5.82;;;4.15;;
15996;SDS011;8103;51.340;12.326;2023-03-12T17:23:33;6.28;;;4.13;;
15996;SDS011;8103;51.340;12.326;2023-03-12T17:26:00;6.25;;;3.50;;
15996;SDS011;8103;51.340;12.326;2023-03-12T17:28:33;4.30;;;3.38;;
15996;SDS011;8103;51.340;12.326;2023-03-12T17:31:04;4.68;;;3.67;;
15996;SDS011;8103;51.340;12.326;2023-03-12T17:33:36;4.30;;;3.58;;
15996;SDS011;8103;51.340;12.326;2023-03-12T17:36:06;3.88;;;3.50;;
15996;SDS011;8103;51.340;12.326;2023-03-12T17:38:42;5.43;;;3.85;;
15996;SDS011;8103;51.340;12.326;2023-03-12T17:41:09;5.40;;;3.22;;